Boise, ID (83714)

10:43 AM MDT on October 02, 2014 (GMT -0600)
Original West Boise | Change Station
CLOSE
Current Station
Personal Weather Station
Location: Boise, ID
Elevation: 2659 ft
Nearby Weather Stations

Elev 2659 ft 43.65 °N, 116.32 °W | Updated 7 seconds ago

Clear
Clear
57.0 °F
Feels Like 57.0 °F
N
0.0
Wind Variable Wind from WNW
Gusts 3.0 mph

Today
High -- | Low -- °F
--% Chance of Precip.
Yesterday
High -- | Low -- °F
Precip. -- in
7:43 AM 7:24 PM
First Quarter, 60% visible
Pressure 30.22 in
Visibility 10.0 miles
Clouds Clear
Dew Point 44 °F
Humidity 63%
Rainfall 0.00 in
Snow Depth 0 in , 0 in , 1 in
UV 2 out of 12
Pollen 7.50 out of 12
PM2.5 Good
Flu Activity Not available.
METAR KBOI 021553Z 11005KT 10SM CLR 12/02 A3023 RMK AO2 SLP232 T01170017

More Conditions Fewer Conditions

Pressure 30.22 in
Visibility 10.0 miles
Clouds Clear
Dew Point 44 °F
Humidity 63%
Rainfall 0.00 in
Snow Depth 0 in , 0 in , 1 in
UV 2 out of 12
Pollen 7.50 out of 12
PM2.5 Good
Flu Activity Not available.
METAR KBOI 021553Z 11005KT 10SM CLR 12/02 A3023 RMK AO2 SLP232 T01170017

More Conditions Fewer Conditions

10-Day Weather Forecast

Almanac

Astronomy

Oct. 02, 2014 Rise Set
Actual Time 7:43 AM MDT 7:24 PM MDT
Civil Twilight 7:15 AM MDT 7:52 PM MDT
Nautical Twilight 6:42 AM MDT 8:25 PM MDT
Astronomical Twilight 6:08 AM MDT 8:59 PM MDT
Moon 3:43 PM MDT 12:55 AM MDT
Length of Visible Light 12h 37m
Length of Day
11h 40m
Tomorrow will be 2m 58s shorter.
First Quarter, 60% of the Moon is Illuminated
Today
First Quarter
Oct 8
Full
Oct 15
Last Quarter
Oct 23
New
Oct 30
First Quarter

Today's Extremes

State Highs State Lows

Community

WunderPhotos

Upload Photos

1,758,294 photos uploaded!

WunderBlogs® & News

Nearby

Air Quality

  Air Quality AQ Index Pollutant
Yesterday Good
OZONE
Yesterday Good
PM10
Current Good
PM2.5
Thursday Good
OZONE
Friday Good
OZONE

Snow Depth

Station Depth Elevation
Crater Meadows 0 in 5960 ft
Sherwin 0 in 3200 ft
Schwartz Lake 1 in 8620 ft
Long Valley 0 in 4890 ft
Swede Peak 0 in 7640 ft

Earthquake Activity

City Distance Mag. Time & Date
No recent earthquake activity has been reported nearby.
Minimum magnitude displayed is 2.5.

Coastal Water Temperatures

Place Temperature
No Stations Reporting

Nearby Weather Stations